Terminal Aerodrome Forecast
Issued by NWS Goodland, KS

Home | Current Version | Previous Version | Text Only | Print | Product List | Glossary On
Versions: 1 2 3 4 5 6 7 8 9 10 11 12 13 14 15
000
FTUS43 KGLD 031758 AAA
TAFGLD
TAF AMD
KGLD 031758Z 0318/0418 17012KT P6SM BKN017
     FM032100 19011KT P6SM BKN030
     FM040100 27008KT P6SM SCT250=

USA.gov is the U.S. government's official web portal to all federal, state and local government web resources and services.